createdAt,value
2018-12-05T00:00:30.092Z,44.65
2018-12-05T00:02:59.481Z,44.77
2018-12-05T00:05:28.917Z,44.69
2018-12-05T00:07:58.317Z,44.78
2018-12-05T00:10:27.727Z,44.69
2018-12-05T00:12:57.109Z,44.97
2018-12-05T00:15:26.530Z,44.79
2018-12-05T00:17:55.927Z,44.64
2018-12-05T00:20:25.382Z,44.92
2018-12-05T00:22:54.801Z,44.94
2018-12-05T00:25:24.225Z,44.66
2018-12-05T00:27:53.615Z,45.10
2018-12-05T00:30:23.024Z,44.92
2018-12-05T00:32:52.475Z,44.79
2018-12-05T00:35:21.953Z,44.94
2018-12-05T00:37:51.389Z,44.94
2018-12-05T00:40:20.817Z,45.04
2018-12-05T00:42:50.218Z,44.77
2018-12-05T00:45:19.620Z,44.91
2018-12-05T00:47:49.044Z,44.88
2018-12-05T00:50:18.425Z,45.07
2018-12-05T00:52:47.804Z,45.41
2018-12-05T00:55:17.195Z,44.87
2018-12-05T00:57:46.576Z,45.10
2018-12-05T01:00:15.972Z,44.91
2018-12-05T01:02:46.252Z,44.99
2018-12-05T01:05:15.668Z,44.86
2018-12-05T01:07:45.092Z,45.15
2018-12-05T01:10:14.484Z,45.03
2018-12-05T01:12:43.898Z,45.08
2018-12-05T01:15:14.336Z,45.47
2018-12-05T01:17:43.761Z,44.92
2018-12-05T01:20:13.164Z,45.14
2018-12-05T01:22:42.596Z,45.10
2018-12-05T01:25:11.987Z,45.06
2018-12-05T01:27:41.440Z,44.99
2018-12-05T01:30:11.354Z,45.00
2018-12-05T01:32:40.748Z,44.98
2018-12-05T01:35:10.220Z,45.03
2018-12-05T01:37:39.600Z,45.10
2018-12-05T01:40:09.061Z,45.20
2018-12-05T01:42:38.467Z,44.73
2018-12-05T01:45:07.895Z,45.24
2018-12-05T01:47:37.293Z,45.13
2018-12-05T01:50:07.800Z,45.03
2018-12-05T01:52:37.197Z,45.42
2018-12-05T01:55:06.616Z,45.22
2018-12-05T01:57:36.031Z,45.51
2018-12-05T02:00:06.144Z,45.13
2018-12-05T02:02:35.565Z,45.38
2018-12-05T02:05:04.972Z,45.10
2018-12-05T02:07:34.356Z,45.09
2018-12-05T02:10:03.820Z,45.26
2018-12-05T02:12:33.201Z,45.60
2018-12-05T02:15:02.600Z,45.06
2018-12-05T02:17:31.987Z,45.34
2018-12-05T02:20:01.390Z,45.22
2018-12-05T02:22:30.792Z,45.53
2018-12-05T02:25:00.189Z,45.61
2018-12-05T02:27:34.523Z,45.28
2018-12-05T02:30:09.633Z,45.18
2018-12-05T02:32:39.024Z,45.29
2018-12-05T02:35:09.509Z,45.03
2018-12-05T02:37:39.205Z,45.00
2018-12-05T02:40:09.776Z,45.20
2018-12-05T02:42:39.157Z,45.43
2018-12-05T02:45:09.010Z,44.97
2018-12-05T02:47:38.395Z,45.64
2018-12-05T02:50:09.730Z,45.31
2018-12-05T02:52:39.368Z,45.28
2018-12-05T02:55:08.764Z,45.39
2018-12-05T02:57:38.461Z,45.40
2018-12-05T03:00:07.968Z,44.99
2018-12-05T03:02:37.368Z,45.28
2018-12-05T03:05:07.925Z,45.48
2018-12-05T03:07:37.569Z,45.13
2018-12-05T03:10:07.021Z,45.44
2018-12-05T03:12:36.452Z,45.48
2018-12-05T03:15:06.209Z,44.84
2018-12-05T03:17:35.623Z,45.15
2018-12-05T03:20:05.480Z,45.12
2018-12-05T03:22:34.960Z,45.22
2018-12-05T03:25:04.360Z,45.48
2018-12-05T03:27:33.853Z,45.46
2018-12-05T03:30:03.264Z,45.41
2018-12-05T03:32:34.706Z,45.52
2018-12-05T03:35:04.253Z,45.19
2018-12-05T03:37:33.661Z,45.31
2018-12-05T03:40:03.077Z,45.28
2018-12-05T03:42:34.449Z,45.21
2018-12-05T03:45:04.036Z,45.53
2018-12-05T03:47:33.452Z,45.12
2018-12-05T03:50:03.329Z,45.07
2018-12-05T03:52:32.738Z,44.96
2018-12-05T03:55:02.141Z,45.03
2018-12-05T03:57:31.529Z,44.89
2018-12-05T04:00:00.908Z,45.05
2018-12-05T04:02:30.361Z,44.90
2018-12-05T04:04:59.741Z,45.02
2018-12-05T04:07:29.166Z,44.53
2018-12-05T04:09:58.546Z,45.09
2018-12-05T04:12:27.954Z,44.74
2018-12-05T04:14:57.394Z,44.83
2018-12-05T04:17:26.820Z,44.89
2018-12-05T04:19:56.266Z,44.97
2018-12-05T04:22:25.697Z,44.74
2018-12-05T04:24:55.279Z,44.88
2018-12-05T04:27:26.885Z,45.04
2018-12-05T04:29:56.334Z,44.98
2018-12-05T04:32:25.726Z,44.88
2018-12-05T04:34:55.183Z,45.06
2018-12-05T04:37:24.586Z,44.58
2018-12-05T04:39:54.012Z,44.14
2018-12-05T04:42:23.438Z,44.76
2018-12-05T04:44:52.905Z,45.05
2018-12-05T04:47:22.331Z,44.98
2018-12-05T04:49:51.758Z,44.75
2018-12-05T04:52:21.144Z,45.00
2018-12-05T04:54:50.565Z,44.68
2018-12-05T04:57:19.968Z,44.55
2018-12-05T04:59:49.881Z,44.77
2018-12-05T05:02:19.275Z,45.16
2018-12-05T05:04:55.321Z,44.94
2018-12-05T05:07:24.720Z,44.88
2018-12-05T05:09:54.272Z,45.03
2018-12-05T05:12:23.670Z,45.17
2018-12-05T05:14:53.049Z,45.21
2018-12-05T05:17:22.452Z,44.93
2018-12-05T05:19:51.835Z,44.96
2018-12-05T05:22:21.216Z,45.41
2018-12-05T05:24:50.654Z,45.13
2018-12-05T05:27:20.044Z,44.87
2018-12-05T05:29:49.446Z,45.28
2018-12-05T05:32:18.904Z,45.05
2018-12-05T05:34:48.328Z,45.20
2018-12-05T05:37:17.728Z,45.75
2018-12-05T05:39:48.168Z,45.62
2018-12-05T05:42:17.576Z,45.60
2018-12-05T05:44:47.037Z,45.86
2018-12-05T05:47:16.461Z,45.11
2018-12-05T05:49:45.910Z,45.02
2018-12-05T05:52:15.296Z,45.11
2018-12-05T05:54:44.713Z,45.35
2018-12-05T05:57:14.121Z,44.87
2018-12-05T05:59:43.528Z,43.94
2018-12-05T06:02:12.920Z,42.99
2018-12-05T06:04:42.364Z,42.02
2018-12-05T06:07:11.772Z,40.90
2018-12-05T06:09:41.153Z,40.86
2018-12-05T06:12:10.528Z,40.97
2018-12-05T06:14:39.952Z,40.08
2018-12-05T06:17:09.389Z,39.40
2018-12-05T06:19:38.806Z,40.02
2018-12-05T06:22:08.241Z,39.61
2018-12-05T06:24:37.662Z,40.36
2018-12-05T06:27:07.063Z,40.51
2018-12-05T06:29:36.492Z,40.60
2018-12-05T06:32:05.888Z,41.16
2018-12-05T06:34:35.279Z,40.99
2018-12-05T06:37:04.681Z,40.81
2018-12-05T06:39:34.099Z,41.08
2018-12-05T06:42:03.488Z,41.09
2018-12-05T06:44:32.893Z,41.46
2018-12-05T06:47:02.400Z,41.31
2018-12-05T06:49:31.832Z,41.00
2018-12-05T06:52:01.237Z,41.14
2018-12-05T06:54:30.646Z,41.22
2018-12-05T06:57:00.041Z,40.95
2018-12-05T06:59:29.461Z,41.61
2018-12-05T07:01:58.975Z,41.23
2018-12-05T07:04:28.409Z,41.59
2018-12-05T07:07:04.364Z,41.42
2018-12-05T07:09:33.782Z,41.51
2018-12-05T07:12:03.193Z,41.41
2018-12-05T07:14:32.602Z,41.50
2018-12-05T07:17:02.000Z,41.14
2018-12-05T07:19:31.396Z,41.51
2018-12-05T07:22:00.796Z,41.21
2018-12-05T07:24:30.183Z,41.31
2018-12-05T07:26:59.600Z,41.67
2018-12-05T07:29:29.000Z,41.53
2018-12-05T07:31:58.445Z,41.49
2018-12-05T07:34:27.844Z,41.36
2018-12-05T07:36:57.283Z,41.51
2018-12-05T07:39:26.672Z,41.59
2018-12-05T07:41:56.111Z,41.69
2018-12-05T07:44:25.494Z,41.70
2018-12-05T07:46:54.923Z,41.81
2018-12-05T07:49:24.680Z,41.63
2018-12-05T07:51:54.090Z,41.45
2018-12-05T07:54:23.492Z,41.54
2018-12-05T07:56:53.065Z,41.89
2018-12-05T07:59:22.480Z,41.45
2018-12-05T08:01:52.036Z,41.16
2018-12-05T08:04:21.497Z,41.76
2018-12-05T08:06:50.992Z,41.78
2018-12-05T08:09:20.422Z,41.55
2018-12-05T08:11:49.848Z,41.48
2018-12-05T08:14:19.252Z,41.65
2018-12-05T08:16:48.749Z,41.77
2018-12-05T08:19:18.152Z,41.69
2018-12-05T08:21:47.661Z,41.16
2018-12-05T08:24:17.059Z,41.49
2018-12-05T08:26:46.460Z,41.59
2018-12-05T08:29:15.866Z,41.75
2018-12-05T08:31:45.248Z,41.77
2018-12-05T08:34:14.655Z,41.73
2018-12-05T08:36:44.069Z,41.42
2018-12-05T08:39:13.473Z,41.50
2018-12-05T08:41:42.865Z,41.77
2018-12-05T08:44:12.270Z,41.66
2018-12-05T08:46:42.067Z,41.40
2018-12-05T08:49:11.495Z,41.65
2018-12-05T08:51:40.895Z,41.97
2018-12-05T08:54:10.651Z,41.59
2018-12-05T08:56:40.089Z,41.98
2018-12-05T08:59:09.782Z,41.74
2018-12-05T09:01:39.165Z,41.51
2018-12-05T09:04:09.389Z,41.67
2018-12-05T09:06:38.820Z,41.18
2018-12-05T09:09:08.260Z,41.97
2018-12-05T09:11:37.633Z,41.61
2018-12-05T09:14:07.133Z,41.54
2018-12-05T09:16:36.537Z,41.35
2018-12-05T09:19:06.021Z,41.75
2018-12-05T09:21:35.396Z,41.66
2018-12-05T09:24:04.810Z,41.45
2018-12-05T09:26:34.234Z,41.88
2018-12-05T09:29:03.783Z,41.53
2018-12-05T09:31:33.164Z,41.59
2018-12-05T09:34:02.560Z,42.03
2018-12-05T09:36:31.981Z,41.63
2018-12-05T09:39:01.420Z,41.62
2018-12-05T09:41:32.014Z,41.35
2018-12-05T09:44:01.435Z,41.62
2018-12-05T09:46:31.932Z,41.95
2018-12-05T09:49:01.336Z,41.67
2018-12-05T09:51:30.732Z,41.15
2018-12-05T09:54:00.110Z,41.56
2018-12-05T09:56:30.564Z,41.68
2018-12-05T09:58:59.957Z,41.96
2018-12-05T10:01:29.354Z,41.24
2018-12-05T10:03:58.748Z,41.38
2018-12-05T10:06:28.147Z,41.60
2018-12-05T10:08:57.528Z,41.77
2018-12-05T10:11:26.915Z,41.13
2018-12-05T10:13:56.361Z,41.64
2018-12-05T10:16:25.807Z,42.00
2018-12-05T10:18:55.205Z,41.61
2018-12-05T10:21:24.625Z,41.70
2018-12-05T10:23:54.010Z,41.42
2018-12-05T10:26:23.396Z,41.81
2018-12-05T10:28:52.899Z,41.70
2018-12-05T10:31:22.312Z,42.18
2018-12-05T10:33:51.700Z,41.30
2018-12-05T10:36:21.240Z,41.31
2018-12-05T10:38:50.617Z,41.62
2018-12-05T10:41:20.038Z,41.58
2018-12-05T10:43:49.417Z,41.42
2018-12-05T10:46:18.840Z,41.66
2018-12-05T10:48:48.220Z,41.98
2018-12-05T10:51:17.620Z,41.64
2018-12-05T10:53:47.047Z,41.67
2018-12-05T10:56:16.453Z,41.31
2018-12-05T10:58:45.860Z,41.50
2018-12-05T11:01:20.468Z,41.55
2018-12-05T11:03:49.944Z,41.59
2018-12-05T11:06:24.416Z,41.75
2018-12-05T11:08:59.036Z,41.65
2018-12-05T11:11:33.600Z,41.35
2018-12-05T11:14:08.149Z,41.65
2018-12-05T11:16:41.696Z,41.42
2018-12-05T11:19:16.336Z,41.80
2018-12-05T11:21:50.972Z,41.99
2018-12-05T11:24:37.640Z,41.38
2018-12-05T11:27:07.293Z,41.90
2018-12-05T11:29:36.704Z,41.96
2018-12-05T11:32:06.124Z,41.45
2018-12-05T11:34:35.524Z,41.38
2018-12-05T11:37:04.920Z,41.95
2018-12-05T11:39:34.350Z,41.38
2018-12-05T11:42:03.788Z,41.96
2018-12-05T11:44:33.184Z,41.49
2018-12-05T11:47:02.593Z,41.68
2018-12-05T11:49:32.376Z,41.65
2018-12-05T11:52:01.772Z,41.83
2018-12-05T11:54:31.185Z,41.44
2018-12-05T11:57:00.624Z,41.39
2018-12-05T11:59:30.013Z,41.66
2018-12-05T12:01:59.434Z,41.70
2018-12-05T12:04:28.816Z,41.68
2018-12-05T12:06:58.250Z,41.99
2018-12-05T12:09:27.652Z,41.58
2018-12-05T12:11:57.041Z,41.34
2018-12-05T12:14:26.446Z,41.63
2018-12-05T12:16:55.893Z,41.70
2018-12-05T12:19:25.281Z,41.97
2018-12-05T12:21:54.700Z,41.85
2018-12-05T12:24:24.110Z,41.76
2018-12-05T12:26:53.515Z,41.38
2018-12-05T12:29:22.925Z,41.74
2018-12-05T12:31:52.369Z,41.54
2018-12-05T12:34:21.752Z,41.67
2018-12-05T12:36:51.188Z,41.69
2018-12-05T12:39:20.581Z,41.70
2018-12-05T12:41:50.017Z,41.78
2018-12-05T12:44:19.412Z,41.37
2018-12-05T12:46:48.826Z,41.45
2018-12-05T12:49:18.227Z,41.48
2018-12-05T12:51:47.648Z,41.69
2018-12-05T12:54:17.046Z,41.57
2018-12-05T12:56:46.442Z,41.35
2018-12-05T12:59:15.826Z,41.79
2018-12-05T13:01:45.225Z,41.61
2018-12-05T13:04:14.616Z,41.57
2018-12-05T13:06:44.010Z,41.52
2018-12-05T13:09:13.408Z,40.93
2018-12-05T13:11:43.889Z,41.23
2018-12-05T13:14:13.504Z,41.19
2018-12-05T13:16:42.952Z,41.59
2018-12-05T13:19:12.446Z,41.43
2018-12-05T13:21:41.836Z,41.56
2018-12-05T13:24:11.301Z,41.68
2018-12-05T13:26:40.684Z,41.88
2018-12-05T13:29:10.084Z,41.54
2018-12-05T13:31:39.544Z,41.80
2018-12-05T13:34:09.017Z,41.83
2018-12-05T13:36:38.416Z,42.13
2018-12-05T13:39:08.784Z,41.59
2018-12-05T13:41:39.641Z,41.83
2018-12-05T13:44:09.119Z,42.09
2018-12-05T13:46:38.549Z,42.15
2018-12-05T13:49:09.152Z,41.76
2018-12-05T13:51:38.568Z,41.37
2018-12-05T13:54:08.032Z,41.77
2018-12-05T13:56:37.408Z,41.99
2018-12-05T13:59:06.852Z,41.77
2018-12-05T14:01:36.313Z,42.01
2018-12-05T14:04:05.770Z,41.94
2018-12-05T14:06:35.212Z,41.89
2018-12-05T14:09:06.116Z,41.99
2018-12-05T14:11:36.588Z,41.89
2018-12-05T14:14:06.040Z,41.79
2018-12-05T14:16:35.448Z,42.02
2018-12-05T14:19:04.849Z,41.58
2018-12-05T14:21:34.266Z,41.79
2018-12-05T14:24:03.709Z,41.67
2018-12-05T14:26:33.161Z,41.79
2018-12-05T14:29:03.699Z,41.61
2018-12-05T14:31:33.120Z,41.86
2018-12-05T14:34:02.502Z,41.71
2018-12-05T14:36:31.927Z,41.92
2018-12-05T14:39:01.348Z,41.10
2018-12-05T14:41:32.026Z,41.51
2018-12-05T14:44:02.044Z,41.78
2018-12-05T14:46:32.162Z,41.63
2018-12-05T14:49:01.593Z,41.48
2018-12-05T14:51:31.024Z,41.95
2018-12-05T14:54:00.412Z,41.86
2018-12-05T14:56:29.851Z,41.84
2018-12-05T14:58:59.267Z,42.21
2018-12-05T15:01:28.709Z,42.25
2018-12-05T15:03:58.125Z,42.43
2018-12-05T15:06:27.533Z,42.34
2018-12-05T15:08:56.967Z,42.18
2018-12-05T15:11:27.002Z,42.43
2018-12-05T15:13:56.425Z,42.20
2018-12-05T15:16:25.809Z,42.41
2018-12-05T15:18:55.248Z,42.49
2018-12-05T15:21:24.656Z,42.62
2018-12-05T15:23:54.078Z,42.61
2018-12-05T15:26:23.476Z,42.36
2018-12-05T15:28:52.902Z,42.69
2018-12-05T15:31:22.265Z,42.55
2018-12-05T15:33:51.686Z,42.31
2018-12-05T15:36:21.072Z,42.65
2018-12-05T15:38:50.491Z,42.59
2018-12-05T15:41:19.930Z,42.51
2018-12-05T15:43:49.381Z,42.64
2018-12-05T15:46:18.756Z,42.38
2018-12-05T15:48:48.184Z,42.18
2018-12-05T15:51:17.581Z,42.58
2018-12-05T15:53:46.984Z,42.47
2018-12-05T15:56:16.348Z,42.60
2018-12-05T15:58:45.785Z,42.65
2018-12-05T16:01:15.178Z,42.30
2018-12-05T16:03:44.573Z,42.59
2018-12-05T16:06:13.997Z,42.15
2018-12-05T16:08:43.416Z,43.02
2018-12-05T16:11:12.809Z,42.61
2018-12-05T16:13:42.188Z,42.44
2018-12-05T16:16:11.560Z,42.49
2018-12-05T16:18:41.040Z,42.50
2018-12-05T16:21:10.433Z,43.03
2018-12-05T16:23:39.815Z,42.47
2018-12-05T16:26:10.831Z,43.07
2018-12-05T16:28:40.607Z,42.61
2018-12-05T16:31:10.000Z,42.34
2018-12-05T16:33:39.401Z,42.53
2018-12-05T16:36:11.227Z,42.53
2018-12-05T16:38:41.032Z,42.50
2018-12-05T16:41:11.454Z,42.54
2018-12-05T16:43:40.868Z,42.62
2018-12-05T16:46:10.284Z,42.47
2018-12-05T16:48:39.661Z,42.43
2018-12-05T16:51:09.059Z,42.75
2018-12-05T16:53:38.464Z,42.32
2018-12-05T16:56:07.931Z,42.69
2018-12-05T16:58:37.425Z,42.94
2018-12-05T17:01:06.864Z,42.27
2018-12-05T17:03:36.251Z,42.63
2018-12-05T17:06:05.723Z,42.60
2018-12-05T17:08:35.100Z,41.59
2018-12-05T17:11:04.497Z,41.92
2018-12-05T17:13:35.961Z,41.92
2018-12-05T17:16:05.370Z,42.22
2018-12-05T17:18:34.780Z,42.17
2018-12-05T17:21:04.170Z,42.13
2018-12-05T17:23:33.589Z,41.25
2018-12-05T17:26:02.988Z,40.92
2018-12-05T17:28:32.428Z,42.06
2018-12-05T17:31:01.815Z,41.63
2018-12-05T17:33:31.241Z,41.94
2018-12-05T17:36:00.628Z,41.89
2018-12-05T17:38:30.049Z,41.80
2018-12-05T17:40:59.455Z,41.75
2018-12-05T17:43:28.888Z,42.01
2018-12-05T17:45:58.281Z,41.94
2018-12-05T17:48:27.705Z,42.12
2018-12-05T17:50:57.132Z,41.84
2018-12-05T17:53:26.712Z,42.12
2018-12-05T17:55:56.150Z,41.93
2018-12-05T17:58:25.572Z,41.67
2018-12-05T18:00:54.987Z,41.85
2018-12-05T18:03:24.410Z,42.20
2018-12-05T18:05:53.812Z,42.45
2018-12-05T18:08:23.224Z,42.20
2018-12-05T18:10:52.603Z,41.73
2018-12-05T18:13:22.033Z,42.13
2018-12-05T18:15:51.413Z,41.64
2018-12-05T18:18:21.959Z,41.63
2018-12-05T18:20:51.552Z,41.79
2018-12-05T18:23:20.999Z,41.98
2018-12-05T18:25:52.347Z,41.94
2018-12-05T18:28:22.664Z,42.14
2018-12-05T18:30:52.048Z,41.03
2018-12-05T18:33:21.473Z,41.85
2018-12-05T18:35:50.904Z,41.90
2018-12-05T18:38:20.313Z,41.71
2018-12-05T18:40:49.754Z,42.03
2018-12-05T18:43:19.336Z,41.62
2018-12-05T18:45:48.868Z,41.79
2018-12-05T18:48:18.632Z,41.47
2018-12-05T18:50:48.105Z,41.68
2018-12-05T18:53:17.605Z,41.67
2018-12-05T18:55:47.096Z,41.50
2018-12-05T18:58:16.572Z,41.53
2018-12-05T19:00:46.027Z,41.82
2018-12-05T19:03:15.448Z,41.84
2018-12-05T19:05:46.247Z,41.45
2018-12-05T19:08:15.962Z,41.64
2018-12-05T19:10:45.453Z,42.07
2018-12-05T19:13:15.230Z,41.88
2018-12-05T19:15:44.653Z,42.01
2018-12-05T19:18:14.058Z,41.92
2018-12-05T19:20:43.472Z,41.92
2018-12-05T19:23:13.225Z,42.11
2018-12-05T19:25:42.750Z,42.18
2018-12-05T19:28:12.181Z,41.97
2018-12-05T19:30:41.597Z,42.04
2018-12-05T19:33:11.608Z,42.33
2018-12-05T19:35:41.021Z,42.13
2018-12-05T19:38:11.105Z,41.98
2018-12-05T19:40:41.191Z,42.37
2018-12-05T19:43:11.532Z,42.06
2018-12-05T19:45:41.688Z,42.13
2018-12-05T19:48:11.191Z,42.41
2018-12-05T19:50:40.633Z,41.92
2018-12-05T19:53:10.085Z,42.26
2018-12-05T19:55:39.589Z,42.58
2018-12-05T19:58:10.620Z,42.48
2018-12-05T20:00:40.160Z,42.02
2018-12-05T20:03:09.585Z,42.34
2018-12-05T20:05:39.024Z,42.11
2018-12-05T20:08:08.986Z,42.01
2018-12-05T20:10:38.394Z,42.24
2018-12-05T20:13:07.839Z,42.22
2018-12-05T20:15:37.282Z,41.98
2018-12-05T20:18:06.758Z,41.78
2018-12-05T20:20:36.859Z,41.76
2018-12-05T20:23:06.326Z,41.83
2018-12-05T20:25:35.745Z,42.52
2018-12-05T20:28:05.327Z,41.94
2018-12-05T20:30:34.739Z,41.95
2018-12-05T20:33:04.165Z,41.93
2018-12-05T20:35:33.588Z,42.39
2018-12-05T20:38:03.588Z,41.92
2018-12-05T20:40:33.052Z,42.82
2018-12-05T20:43:02.476Z,42.23
2018-12-05T20:45:31.924Z,42.42
2018-12-05T20:48:01.333Z,42.50
2018-12-05T20:50:30.796Z,42.06
2018-12-05T20:53:00.296Z,42.42
2018-12-05T20:55:29.735Z,42.59
2018-12-05T20:57:59.147Z,42.26
2018-12-05T21:00:28.591Z,42.49
2018-12-05T21:02:58.024Z,42.38
2018-12-05T21:05:27.485Z,42.60
2018-12-05T21:07:56.905Z,42.47
2018-12-05T21:10:26.331Z,42.08
2018-12-05T21:12:55.793Z,42.67
2018-12-05T21:15:25.218Z,42.25
2018-12-05T21:17:54.608Z,42.21
2018-12-05T21:20:24.072Z,41.99
2018-12-05T21:22:54.449Z,42.45
2018-12-05T21:25:23.925Z,42.43
2018-12-05T21:27:53.394Z,42.75
2018-12-05T21:30:22.810Z,42.81
2018-12-05T21:32:52.797Z,42.47
2018-12-05T21:35:22.251Z,42.95
2018-12-05T21:37:51.680Z,42.65
2018-12-05T21:40:22.140Z,42.61
2018-12-05T21:42:51.585Z,42.27
2018-12-05T21:45:21.011Z,42.65
2018-12-05T21:47:50.437Z,42.33
2018-12-05T21:50:19.840Z,42.49
2018-12-05T21:52:49.269Z,42.55
2018-12-05T21:55:19.642Z,42.24
2018-12-05T21:57:49.057Z,42.46
2018-12-05T22:00:19.009Z,42.06
2018-12-05T22:02:48.436Z,42.48
2018-12-05T22:05:17.992Z,42.90
2018-12-05T22:07:47.422Z,42.71
2018-12-05T22:10:16.826Z,42.69
2018-12-05T22:12:46.267Z,42.34
2018-12-05T22:15:15.649Z,42.76
2018-12-05T22:17:45.057Z,42.58
2018-12-05T22:20:14.489Z,42.36
2018-12-05T22:22:43.933Z,42.46
2018-12-05T22:25:13.337Z,42.67
2018-12-05T22:27:42.759Z,42.62
2018-12-05T22:30:12.141Z,42.63
2018-12-05T22:32:41.543Z,42.60
2018-12-05T22:35:10.949Z,42.84
2018-12-05T22:37:40.341Z,42.62
2018-12-05T22:40:10.180Z,42.86
2018-12-05T22:42:39.641Z,42.62
2018-12-05T22:45:09.067Z,42.78
2018-12-05T22:47:38.444Z,42.33
2018-12-05T22:50:08.637Z,43.11
2018-12-05T22:52:38.109Z,42.95
2018-12-05T22:55:07.559Z,42.84
2018-12-05T22:57:36.991Z,42.49
2018-12-05T23:00:11.097Z,43.20
2018-12-05T23:02:40.496Z,43.16
2018-12-05T23:05:09.988Z,42.61
2018-12-05T23:07:39.407Z,42.51
2018-12-05T23:10:08.847Z,42.02
2018-12-05T23:12:38.254Z,41.90
2018-12-05T23:15:07.850Z,42.40
2018-12-05T23:17:37.283Z,42.54
2018-12-05T23:20:07.145Z,42.57
2018-12-05T23:22:36.544Z,42.29
2018-12-05T23:25:05.992Z,42.36
2018-12-05T23:27:35.393Z,42.38
2018-12-05T23:30:06.175Z,42.48
2018-12-05T23:32:35.588Z,41.70
2018-12-05T23:35:05.112Z,42.07
2018-12-05T23:37:34.541Z,42.23
2018-12-05T23:40:03.962Z,41.71
2018-12-05T23:42:33.424Z,42.07
2018-12-05T23:45:02.877Z,42.35
2018-12-05T23:47:32.313Z,41.85
2018-12-05T23:50:01.725Z,41.92
2018-12-05T23:52:31.148Z,42.25
2018-12-05T23:55:00.576Z,43.03
2018-12-05T23:57:31.065Z,42.90
